createdAt,value
2019-02-23T00:02:59.163Z,14.57
2019-02-23T00:08:06.529Z,17.57
2019-02-23T00:13:13.666Z,17.97
2019-02-23T00:18:21.259Z,14.00
2019-02-23T00:23:28.773Z,14.87
2019-02-23T00:28:36.324Z,14.43
2019-02-23T00:33:43.643Z,16.00
2019-02-23T00:38:49.774Z,15.43
2019-02-23T00:43:57.328Z,15.97
2019-02-23T00:49:04.567Z,17.00
2019-02-23T00:54:12.539Z,17.93
2019-02-23T00:59:19.731Z,21.43
2019-02-23T01:04:27.265Z,17.30
2019-02-23T01:09:34.483Z,18.17
2019-02-23T01:14:41.816Z,16.27
2019-02-23T01:19:48.214Z,16.73
2019-02-23T01:24:54.098Z,16.97
2019-02-23T01:30:01.616Z,18.10
2019-02-23T01:35:07.935Z,16.57
2019-02-23T01:40:14.249Z,15.67
2019-02-23T01:45:21.573Z,21.03
2019-02-23T01:50:28.255Z,15.80
2019-02-23T01:55:34.598Z,16.60
2019-02-23T02:00:41.318Z,17.90
2019-02-23T02:05:48.017Z,13.73
2019-02-23T02:10:53.848Z,14.83
2019-02-23T02:16:00.427Z,14.53
2019-02-23T02:21:09.048Z,12.47
2019-02-23T02:26:16.142Z,13.43
2019-02-23T02:31:23.691Z,13.07
2019-02-23T02:36:31.144Z,11.20
2019-02-23T02:41:38.434Z,10.63
2019-02-23T02:46:46.652Z,12.07
2019-02-23T02:51:53.983Z,13.83
2019-02-23T02:57:01.104Z,13.10
2019-02-23T03:02:10.945Z,13.93
2019-02-23T03:07:18.221Z,17.43
2019-02-23T03:12:24.182Z,14.27
2019-02-23T03:17:29.963Z,14.73
2019-02-23T03:22:36.099Z,16.67
2019-02-23T03:27:43.460Z,14.87
2019-02-23T03:32:49.377Z,16.67
2019-02-23T03:37:55.233Z,17.40
2019-02-23T03:43:01.534Z,16.23
2019-02-23T03:48:27.326Z,18.93
2019-02-23T03:53:33.968Z,15.07
2019-02-23T03:58:41.330Z,17.07
2019-02-23T04:03:48.523Z,20.90
2019-02-23T04:08:56.501Z,18.73
2019-02-23T04:14:04.229Z,17.10
2019-02-23T04:19:11.215Z,19.07
2019-02-23T04:24:18.178Z,18.93
2019-02-23T04:29:25.401Z,18.50
2019-02-23T04:34:39.147Z,17.27
2019-02-23T04:39:46.459Z,19.37
2019-02-23T04:45:12.771Z,15.77
2019-02-23T04:50:20.627Z,15.67
2019-02-23T04:55:26.550Z,18.37
2019-02-23T05:00:34.115Z,18.37
2019-02-23T05:05:41.353Z,16.47
2019-02-23T05:10:47.878Z,15.70
2019-02-23T05:15:55.570Z,16.03
2019-02-23T05:21:01.693Z,15.37
2019-02-23T05:26:28.237Z,15.70
2019-02-23T05:31:35.646Z,18.43
2019-02-23T05:36:41.911Z,20.47
2019-02-23T05:41:49.672Z,17.83
2019-02-23T05:46:57.404Z,20.97
2019-02-23T05:52:04.450Z,19.00
2019-02-23T05:57:11.128Z,17.93
2019-02-23T06:02:19.618Z,22.63
2019-02-23T06:07:26.878Z,18.90
2019-02-23T06:12:34.164Z,19.27
2019-02-23T06:17:40.923Z,21.10
2019-02-23T06:22:50.527Z,18.87
2019-02-23T06:27:57.666Z,15.17
2019-02-23T06:33:05.383Z,18.90
2019-02-23T06:38:12.773Z,16.87
2019-02-23T06:43:20.277Z,16.93
2019-02-23T06:48:26.393Z,17.67
2019-02-23T06:53:33.291Z,19.53
2019-02-23T06:58:39.550Z,18.83
2019-02-23T07:03:45.595Z,16.87
2019-02-23T07:08:55.617Z,15.73
2019-02-23T07:14:01.707Z,17.10
2019-02-23T07:19:07.719Z,14.30
2019-02-23T07:24:13.730Z,17.30
2019-02-23T07:29:19.977Z,14.73
2019-02-23T07:34:26.368Z,13.87
2019-02-23T07:39:32.707Z,14.90
2019-02-23T07:44:38.603Z,14.93
2019-02-23T07:49:44.799Z,13.87
2019-02-23T07:54:50.718Z,14.47
2019-02-23T07:59:58.042Z,14.13
2019-02-23T08:05:05.384Z,13.17
2019-02-23T08:10:11.621Z,15.77
2019-02-23T08:15:17.924Z,14.20
2019-02-23T08:20:24.351Z,12.70
2019-02-23T08:25:30.824Z,12.67
2019-02-23T08:30:39.019Z,15.77
2019-02-23T08:35:45.848Z,13.17
2019-02-23T08:40:51.548Z,14.30
2019-02-23T08:45:57.597Z,16.23
2019-02-23T08:51:03.794Z,14.73
2019-02-23T08:56:10.051Z,9.27
2019-02-23T09:01:17.180Z,11.77
2019-02-23T09:06:23.390Z,12.70
2019-02-23T09:11:29.724Z,9.20
2019-02-23T09:16:37.027Z,12.87
2019-02-23T09:21:44.931Z,10.83
2019-02-23T09:26:52.002Z,11.77
2019-02-23T09:31:59.236Z,8.87
2019-02-23T09:37:05.057Z,11.37
2019-02-23T09:42:11.317Z,11.50
2019-02-23T09:47:17.429Z,11.87
2019-02-23T09:52:23.465Z,10.43
2019-02-23T09:57:29.647Z,9.97
2019-02-23T10:02:36.048Z,8.33
2019-02-23T10:07:42.707Z,9.77
2019-02-23T10:12:49.921Z,10.67
2019-02-23T10:17:56.567Z,9.80
2019-02-23T10:23:04.403Z,10.83
2019-02-23T10:28:11.507Z,10.03
2019-02-23T10:33:18.691Z,10.20
2019-02-23T10:38:25.210Z,7.47
2019-02-23T10:43:33.465Z,11.03
2019-02-23T10:48:41.286Z,11.10
2019-02-23T10:53:50.590Z,7.85
2019-02-23T10:58:59.171Z,7.50
2019-02-23T11:04:05.536Z,6.80
2019-02-23T11:09:36.191Z,8.45
2019-02-23T11:14:45.248Z,5.70
2019-02-23T11:19:52.285Z,7.33
2019-02-23T11:25:01.662Z,9.30
2019-02-23T11:30:11.104Z,6.50
2019-02-23T11:35:18.712Z,6.70
2019-02-23T11:40:25.326Z,6.47
2019-02-23T11:45:32.176Z,6.40
2019-02-23T11:50:38.669Z,5.25
2019-02-23T11:55:45.028Z,6.92
2019-02-23T12:00:51.948Z,5.47
2019-02-23T12:05:58.444Z,5.90
2019-02-23T12:11:04.383Z,6.17
2019-02-23T12:16:10.772Z,6.12
2019-02-23T12:21:17.829Z,4.92
2019-02-23T12:26:25.754Z,5.33
2019-02-23T12:31:32.147Z,9.03
2019-02-23T12:36:39.623Z,5.33
2019-02-23T12:41:45.992Z,4.08
2019-02-23T12:46:52.051Z,4.72
2019-02-23T12:51:58.532Z,3.40
2019-02-23T12:57:04.503Z,3.67
2019-02-23T13:02:10.413Z,4.17
2019-02-23T13:07:16.543Z,4.47
2019-02-23T13:13:15.554Z,4.67
2019-02-23T13:19:04.827Z,3.27
2019-02-23T13:24:50.021Z,4.62
2019-02-23T13:30:20.496Z,3.58
2019-02-23T13:36:25.677Z,4.40
2019-02-23T13:42:05.691Z,4.37
2019-02-23T13:47:38.673Z,3.67
2019-02-23T13:53:24.504Z,5.37
2019-02-23T13:58:39.074Z,4.40
2019-02-23T14:04:07.807Z,3.62
2019-02-23T14:10:08.225Z,9.63
2019-02-23T14:15:45.044Z,3.17
2019-02-23T14:21:36.620Z,3.42
2019-02-23T14:27:40.010Z,3.47
2019-02-23T14:33:33.641Z,5.72
2019-02-23T14:39:26.158Z,3.77
2019-02-23T14:45:09.538Z,7.40
2019-02-23T14:50:32.413Z,2.72
2019-02-23T14:55:54.363Z,5.67
2019-02-23T15:01:59.864Z,2.55
2019-02-23T15:07:59.947Z,3.10
2019-02-23T15:13:52.851Z,2.73
2019-02-23T15:19:48.130Z,4.50
2019-02-23T15:25:31.057Z,2.40
2019-02-23T15:31:31.881Z,3.08
2019-02-23T15:37:12.207Z,2.80
2019-02-23T15:43:01.864Z,4.67
2019-02-23T15:48:41.827Z,1.80
2019-02-23T15:53:48.553Z,2.70
2019-02-23T15:58:55.818Z,4.47
2019-02-23T16:04:03.492Z,3.53
2019-02-23T16:09:12.229Z,2.63
2019-02-23T16:14:19.290Z,2.83
2019-02-23T16:19:27.216Z,4.03
2019-02-23T16:24:34.493Z,3.43
2019-02-23T16:29:41.844Z,4.30
2019-02-23T16:34:49.385Z,5.90
2019-02-23T16:39:55.469Z,5.70
2019-02-23T16:45:02.782Z,3.80
2019-02-23T16:50:10.488Z,4.77
2019-02-23T16:55:17.757Z,4.17
2019-02-23T17:00:24.314Z,3.40
2019-02-23T17:05:31.778Z,4.37
2019-02-23T17:10:39.230Z,3.20
2019-02-23T17:15:45.543Z,4.70
2019-02-23T17:20:54.459Z,4.33
2019-02-23T17:26:04.928Z,3.57
2019-02-23T17:31:09.176Z,4.90
2019-02-23T17:36:15.311Z,3.53
2019-02-23T17:41:23.286Z,7.93
2019-02-23T17:46:30.794Z,4.37
2019-02-23T17:51:37.486Z,5.23
2019-02-23T17:56:52.921Z,6.03
2019-02-23T18:02:00.485Z,5.33
2019-02-23T18:07:06.768Z,6.03
2019-02-23T18:12:14.287Z,4.67
2019-02-23T18:17:21.982Z,6.73
2019-02-23T18:22:28.884Z,4.87
2019-02-23T18:27:35.192Z,8.13
2019-02-23T18:32:41.360Z,5.10
2019-02-23T18:37:47.831Z,5.53
2019-02-23T18:42:58.238Z,6.27
2019-02-23T18:48:08.252Z,4.13
2019-02-23T18:53:18.801Z,4.60
2019-02-23T18:58:26.791Z,3.80
2019-02-23T19:03:33.272Z,5.30
2019-02-23T19:08:43.364Z,6.97
2019-02-23T19:13:51.001Z,4.47
2019-02-23T19:18:58.385Z,5.07
2019-02-23T19:24:04.732Z,3.97
2019-02-23T19:29:11.557Z,5.03
2019-02-23T19:34:18.981Z,5.60
2019-02-23T19:39:26.374Z,3.77
2019-02-23T19:44:34.532Z,5.03
2019-02-23T19:49:43.807Z,5.33
2019-02-23T19:54:50.285Z,8.93
2019-02-23T19:59:58.030Z,2.37
2019-02-23T20:05:04.521Z,4.53
2019-02-23T20:10:11.418Z,3.93
2019-02-23T20:15:18.280Z,3.63
2019-02-23T20:20:24.671Z,3.00
2019-02-23T20:25:31.180Z,2.90
2019-02-23T20:30:38.834Z,8.70
2019-02-23T20:35:46.378Z,4.77
2019-02-23T20:40:54.591Z,3.87
2019-02-23T20:46:01.343Z,5.80
2019-02-23T20:51:08.031Z,3.97
2019-02-23T20:56:15.251Z,4.80
2019-02-23T21:01:23.001Z,2.97
2019-02-23T21:06:30.851Z,3.20
2019-02-23T21:11:39.199Z,4.67
2019-02-23T21:16:45.490Z,3.63
2019-02-23T21:21:51.739Z,2.87
2019-02-23T21:26:59.942Z,4.13
2019-02-23T21:32:07.360Z,3.53
2019-02-23T21:37:15.005Z,4.73
2019-02-23T21:42:21.163Z,3.27
2019-02-23T21:47:29.008Z,3.40
2019-02-23T21:52:36.705Z,5.93
2019-02-23T21:57:43.580Z,2.73
2019-02-23T22:02:51.495Z,3.60
2019-02-23T22:07:59.390Z,2.90
2019-02-23T22:13:06.989Z,4.10
2019-02-23T22:18:13.408Z,3.10
2019-02-23T22:23:20.708Z,3.40
2019-02-23T22:28:29.273Z,2.90
2019-02-23T22:33:37.559Z,3.83
2019-02-23T22:38:45.289Z,2.83
2019-02-23T22:43:51.941Z,3.90
2019-02-23T22:48:57.921Z,2.97
2019-02-23T22:54:06.657Z,3.63
2019-02-23T22:59:14.905Z,2.00
2019-02-23T23:04:22.734Z,3.53
2019-02-23T23:09:29.154Z,3.23
2019-02-23T23:14:38.149Z,2.00
2019-02-23T23:19:44.460Z,4.23
2019-02-23T23:24:50.575Z,1.57
2019-02-23T23:29:56.837Z,7.23
2019-02-23T23:35:03.001Z,3.30
2019-02-23T23:40:10.238Z,2.63
2019-02-23T23:45:16.280Z,2.50
2019-02-23T23:50:22.569Z,2.47
2019-02-23T23:55:29.082Z,2.90
